»·PEaware :: N333ZS KSNA-KOXR

N333ZS :: KSNA-KOXR

FLIGHT INFORMATION

Flight Status: Arrived
Operator: Privately registered:
United States
More flights under this callsign
Pilot: Judd H. (29974)
Aircraft: CESSNA 182 SKYLANE
(C182)
More flights by this aircraft type
Origin: KSNA John Wayne-Orange Co
United States
Destination: KOXR Oxnard
United States
More flights between these airports :: More routes between these airports
Route: SLI V23 POPPR SMO125 SMO VNY
File this flight plan on PilotEdge
Remarks:
Altitude:
(Current/Filed)
6,000ft
Speed:
(Current/Filed)
120kts
Departed: 13-Oct-20 08:11 AM
Arrived: 13-Oct-20 08:54 AM
Distance/Time
Traveled:
74nm/0:43
Distance/Time
To Go:
Arrived

Flight Plot

Page will automatically refresh every two minutes.


Map Options




Map Legend


Flown Route
Filed Route
Departure Airport
Arrival Airport
Navaid (VOR, NDB)
Fix

Horizontal Profiles

Position Reports

Time Latitude Longitude Heading Altitude Ground
Speed
13-Oct-20 07:54 33.675382 -117.871552 219 59ft 0kts
13-Oct-20 07:55 33.675376 -117.871557 219 59ft 0kts
13-Oct-20 07:56 33.675371 -117.871563 219 59ft 0kts
13-Oct-20 07:57 33.675365 -117.871568 219 59ft 0kts
13-Oct-20 07:58 33.675360 -117.871574 219 59ft 0kts
13-Oct-20 07:59 33.675354 -117.871579 219 59ft 0kts
13-Oct-20 08:00 33.675349 -117.871585 219 59ft 0kts
13-Oct-20 08:01 33.675344 -117.871590 219 59ft 0kts
13-Oct-20 08:02 33.675338 -117.871596 219 59ft 0kts
13-Oct-20 08:03 33.675332 -117.871601 219 59ft 0kts
13-Oct-20 08:04 33.675781 -117.870321 26 59ft 20kts
13-Oct-20 08:05 33.680465 -117.867432 27 59ft 7kts
13-Oct-20 08:06 33.681303 -117.866619 140 59ft 0kts
13-Oct-20 08:07 33.681168 -117.866550 159 59ft 0kts
13-Oct-20 08:08 33.681167 -117.866549 159 59ft 0kts
13-Oct-20 08:09 33.679577 -117.866469 207 59ft 38kts
13-Oct-20 08:10 33.658773 -117.886663 235 543ft 122kts
13-Oct-20 08:11 33.638849 -117.920825 235 1186ft 126kts
13-Oct-20 08:12 33.618403 -117.955224 234 1769ft 126kts
13-Oct-20 08:13 33.613283 -117.990361 319 2368ft 124kts
13-Oct-20 08:14 33.638785 -118.017630 313 3123ft 124kts
13-Oct-20 08:15 33.664867 -118.047619 306 3877ft 127kts
13-Oct-20 08:16 33.688281 -118.082076 309 3964ft 137kts
13-Oct-20 08:17 33.712792 -118.114455 305 3991ft 124kts
13-Oct-20 08:18 33.735887 -118.145598 312 4020ft 125kts
13-Oct-20 08:19 33.761284 -118.174311 307 4030ft 125kts
13-Oct-20 08:20 33.782928 -118.207110 303 4040ft 125kts
13-Oct-20 08:21 33.805557 -118.238967 310 4055ft 126kts
13-Oct-20 08:22 33.829988 -118.270064 307 4004ft 126kts
13-Oct-20 08:23 33.855358 -118.299520 314 3985ft 128kts
13-Oct-20 08:24 33.881327 -118.327943 314 4039ft 125kts
13-Oct-20 08:25 33.908729 -118.356140 324 3932ft 132kts
13-Oct-20 08:26 33.933991 -118.378945 314 3898ft 130kts
13-Oct-20 08:27 33.961430 -118.407018 318 3863ft 131kts
13-Oct-20 08:28 33.986846 -118.434143 315 3994ft 124kts
13-Oct-20 08:29 34.014135 -118.459665 342 4051ft 128kts
13-Oct-20 08:30 34.050406 -118.464276 356 4062ft 131kts
13-Oct-20 08:31 34.086910 -118.468137 345 4049ft 132kts
13-Oct-20 08:32 34.110416 -118.496849 280 4003ft 125kts
13-Oct-20 08:33 34.114503 -118.538241 273 3983ft 128kts
13-Oct-20 08:34 34.117880 -118.575029 275 3948ft 103kts
13-Oct-20 08:35 34.123642 -118.610334 279 3981ft 112kts
13-Oct-20 08:36 34.132267 -118.643542 282 3843ft 100kts
13-Oct-20 08:37 34.140551 -118.680108 281 3924ft 116kts
13-Oct-20 08:38 34.148926 -118.716637 283 3966ft 108kts
13-Oct-20 08:39 34.156702 -118.752343 281 3939ft 110kts
13-Oct-20 08:40 34.165053 -118.787626 283 3973ft 109kts
13-Oct-20 08:41 34.174963 -118.822537 284 3988ft 109kts
13-Oct-20 08:42 34.184460 -118.857436 287 3959ft 110kts
13-Oct-20 08:43 34.194923 -118.891931 284 3903ft 108kts
13-Oct-20 08:44 34.199558 -118.926963 269 3884ft 108kts
13-Oct-20 08:45 34.199935 -118.962653 269 3850ft 109kts
13-Oct-20 08:46 34.200164 -118.999437 268 3360ft 107kts
13-Oct-20 08:47 34.200682 -119.032144 266 2649ft 97kts
13-Oct-20 08:48 34.200360 -119.065298 265 2118ft 102kts
13-Oct-20 08:49 34.200166 -119.098758 265 1649ft 99kts
13-Oct-20 08:50 34.200140 -119.132429 270 1163ft 100kts
13-Oct-20 08:51 34.200543 -119.165472 269 645ft 85kts
13-Oct-20 08:52 34.200680 -119.191663 272 204ft 74kts
13-Oct-20 08:53 34.200419 -119.207265 186 46ft 9kts
13-Oct-20 08:54 34.199788 -119.212416 187 46ft 1kts
13-Oct-20 08:55 34.199366 -119.212635 2 46ft 0kts
13-Oct-20 08:56 34.199366 -119.212635 2 46ft 0kts

Navigation Log

Ident Type
Flight plan parsing failed, navigation log unavailable